createdAt,value
2022-11-05T00:06:16.960Z,92.26
2022-11-05T00:16:36.674Z,91.76
2022-11-05T00:26:38.028Z,92.62
2022-11-05T00:36:39.372Z,92.44
2022-11-05T00:46:40.691Z,92.90
2022-11-05T00:56:42.034Z,94.03
2022-11-05T01:06:43.385Z,94.01
2022-11-05T01:16:45.403Z,93.45
2022-11-05T01:26:46.747Z,94.88
2022-11-05T01:36:48.079Z,94.21
2022-11-05T01:46:49.445Z,94.48
2022-11-05T01:56:55.761Z,94.46
2022-11-05T02:06:57.618Z,94.92
2022-11-05T02:17:10.942Z,94.86
2022-11-05T02:27:30.536Z,93.68
2022-11-05T02:37:40.452Z,95.42
2022-11-05T02:47:47.394Z,94.77
2022-11-05T02:57:48.777Z,92.34
2022-11-05T03:08:02.789Z,93.91
2022-11-05T03:18:26.825Z,94.72
2022-11-05T03:28:32.250Z,93.08
2022-11-05T03:38:40.399Z,94.60
2022-11-05T03:48:46.576Z,94.04
2022-11-05T03:58:48.699Z,93.13
2022-11-05T04:09:09.155Z,94.85
2022-11-05T04:19:10.473Z,93.95
2022-11-05T04:29:30.343Z,94.28
2022-11-05T04:39:31.661Z,94.61
2022-11-05T04:49:33.279Z,93.10
2022-11-05T04:59:34.622Z,95.27
2022-11-05T05:09:35.961Z,95.72
2022-11-05T05:19:57.275Z,96.18
2022-11-05T05:29:59.534Z,95.33
2022-11-05T05:40:00.903Z,96.04
2022-11-05T05:50:02.261Z,95.12
2022-11-05T06:00:05.319Z,93.71
2022-11-05T06:10:06.979Z,95.90
2022-11-05T06:20:08.973Z,94.65
2022-11-05T06:30:10.806Z,95.83
2022-11-05T06:40:12.177Z,96.56
2022-11-05T06:50:13.610Z,94.41
2022-11-05T07:00:15.458Z,95.91
2022-11-05T07:10:18.314Z,96.80
2022-11-05T07:20:20.734Z,96.26
2022-11-05T07:30:22.079Z,95.03
2022-11-05T07:40:25.751Z,96.41
2022-11-05T07:50:33.269Z,96.60
2022-11-05T08:00:34.752Z,97.13
2022-11-05T08:10:37.627Z,98.45
2022-11-05T08:20:40.303Z,96.37
2022-11-05T08:30:41.988Z,99.04
2022-11-05T08:40:45.414Z,98.90
2022-11-05T08:50:48.525Z,100.00
2022-11-05T09:00:50.274Z,100.00
2022-11-05T09:10:51.707Z,100.00
2022-11-05T09:20:53.120Z,97.94
2022-11-05T09:30:54.545Z,99.94
2022-11-05T09:41:08.555Z,96.78
2022-11-05T09:51:14.447Z,96.00
2022-11-05T10:01:24.773Z,97.02
2022-11-05T10:11:40.417Z,97.30
2022-11-05T10:22:05.452Z,97.24
2022-11-05T10:32:05.721Z,95.84
2022-11-05T10:42:13.827Z,94.91
2022-11-05T10:52:35.636Z,93.07
2022-11-05T11:02:37.126Z,94.03
2022-11-05T11:12:43.291Z,92.67
2022-11-05T11:22:59.098Z,92.13
2022-11-05T11:33:09.330Z,92.07
2022-11-05T11:43:27.277Z,91.09
2022-11-05T11:53:35.385Z,89.65
2022-11-05T12:03:45.754Z,89.88
2022-11-05T12:14:04.550Z,90.02
2022-11-05T12:24:43.424Z,88.78
2022-11-05T12:35:02.760Z,88.89
2022-11-05T12:45:09.950Z,85.75
2022-11-05T12:55:17.625Z,86.86
2022-11-05T13:05:37.564Z,86.34
2022-11-05T13:15:47.663Z,84.72
2022-11-05T13:25:55.612Z,85.16
2022-11-05T13:36:22.792Z,84.71
2022-11-05T13:46:40.665Z,82.28
2022-11-05T13:57:09.368Z,82.09
2022-11-05T14:07:22.544Z,82.91
2022-11-05T14:17:33.552Z,82.51
2022-11-05T14:27:37.734Z,80.37
2022-11-05T14:37:53.036Z,82.09
2022-11-05T14:47:58.007Z,82.16
2022-11-05T14:57:59.295Z,80.97
2022-11-05T15:08:24.551Z,80.63
2022-11-05T15:18:40.550Z,81.59
2022-11-05T15:29:02.186Z,81.09
2022-11-05T15:39:30.156Z,80.95
2022-11-05T15:49:31.857Z,80.95
2022-11-05T15:59:34.969Z,82.39
2022-11-05T16:09:39.980Z,81.48
2022-11-05T16:19:42.153Z,82.53
2022-11-05T16:29:55.426Z,82.53
2022-11-05T16:39:56.758Z,81.89
2022-11-05T16:49:58.466Z,82.22
2022-11-05T17:00:00.645Z,82.40
2022-11-05T17:10:01.999Z,83.20
2022-11-05T17:20:03.604Z,82.50
2022-11-05T17:30:05.587Z,83.06
2022-11-05T17:40:08.251Z,82.80
2022-11-05T17:50:13.449Z,82.84
2022-11-05T18:00:20.649Z,82.81
2022-11-05T18:10:23.366Z,83.60
2022-11-05T18:20:24.762Z,83.64
2022-11-05T18:30:26.093Z,83.73
2022-11-05T18:40:27.631Z,83.67
2022-11-05T18:50:29.457Z,83.92
2022-11-05T19:00:31.990Z,84.27
2022-11-05T19:10:33.327Z,84.55
2022-11-05T19:20:37.757Z,84.16
2022-11-05T19:30:39.542Z,84.48
2022-11-05T19:40:40.911Z,85.39
2022-11-05T19:50:43.512Z,85.25
2022-11-05T20:00:44.871Z,85.41
2022-11-05T20:10:46.295Z,85.86
2022-11-05T20:20:47.853Z,85.66
2022-11-05T20:30:49.204Z,85.84
2022-11-05T20:40:50.747Z,86.77
2022-11-05T20:50:52.797Z,86.56
2022-11-05T21:00:55.941Z,86.44
2022-11-05T21:10:57.362Z,85.77
2022-11-05T21:21:00.297Z,86.17
2022-11-05T21:31:03.244Z,86.74
2022-11-05T21:41:05.638Z,86.56
2022-11-05T21:51:26.222Z,85.68
2022-11-05T22:01:27.793Z,85.92
2022-11-05T22:11:29.447Z,86.11
2022-11-05T22:21:30.799Z,86.53
2022-11-05T22:31:36.225Z,86.43
2022-11-05T22:41:38.517Z,86.11
2022-11-05T22:51:40.587Z,86.43
2022-11-05T23:01:44.109Z,86.20
2022-11-05T23:11:51.889Z,86.60
2022-11-05T23:22:11.713Z,86.36
2022-11-05T23:32:24.864Z,86.55
2022-11-05T23:42:44.824Z,86.46
2022-11-05T23:52:46.182Z,87.26
